Observation data for Slaton on 07/07/2020      Previous  Date  Next       Current Mesonet Observations  Soil Data  Daily Summary Page  Observations in Plain Language
KSLS 070500Z 11006KT 24/19 A3007 RMK A01 T02350191  RH  078%=      5-min Rain = 0
KSLS 070505Z 12005KT 23/19 A3007 RMK A01 T02340191  RH  079%=      5-min Rain = 0
KSLS 070510Z 12005KT 23/19 A3007 RMK A01 T02330190  RH  079%=      5-min Rain = 0
KSLS 070515Z 13004KT 23/19 A3007 RMK A01 T02290189  RH  080%=      5-min Rain = 0
KSLS 070520Z 13004KT 23/19 A3007 RMK A01 T02260189  RH  082%=      5-min Rain = 0
KSLS 070525Z 12005KT 23/19 A3007 RMK A01 T02250189  RH  082%=      5-min Rain = 0
KSLS 070530Z 12005KT 22/19 A3007 RMK A01 T02240189  RH  083%=      5-min Rain = 0
KSLS 070535Z 12005KT 22/19 A3007 RMK A01 T02240189  RH  083%=      5-min Rain = 0
KSLS 070540Z 12006KT 22/19 A3007 RMK A01 T02230189  RH  083%=      5-min Rain = 0
KSLS 070545Z 12005KT 22/19 A3007 RMK A01 T02220189  RH  083%=      5-min Rain = 0
KSLS 070550Z 13005KT 22/19 A3007 RMK A01 T02220189  RH  084%=      5-min Rain = 0
KSLS 070555Z 14005KT 22/19 A3007 RMK A01 T02200189  RH  084%=      5-min Rain = 0
KSLS 070600Z 14006KT 22/19 A3007 RMK A01 T02200190  RH  085%=      5-min Rain = 0
KSLS 070605Z 14006KT 22/19 A3007 RMK A01 T02200190  RH  085%=      5-min Rain = 0
KSLS 070610Z 14006KT 22/19 A3006 RMK A01 T02200189  RH  085%=      5-min Rain = 0
KSLS 070615Z 13006KT 22/19 A3006 RMK A01 T02190189  RH  085%=      5-min Rain = 0
KSLS 070620Z 13006KT 22/19 A3006 RMK A01 T02180189  RH  086%=      5-min Rain = 0
KSLS 070625Z 13005KT 22/19 A3006 RMK A01 T02180189  RH  086%=      5-min Rain = 0
KSLS 070630Z 13005KT 22/19 A3006 RMK A01 T02180189  RH  086%=      5-min Rain = 0
KSLS 070635Z 13004KT 22/19 A3006 RMK A01 T02180189  RH  086%=      5-min Rain = 0
KSLS 070640Z 14003KT 22/19 A3006 RMK A01 T02170188  RH  086%=      5-min Rain = 0
KSLS 070645Z 15003KT 22/19 A3006 RMK A01 T02160187  RH  086%=      5-min Rain = 0
KSLS 070650Z 14003KT 22/19 A3006 RMK A01 T02150187  RH  086%=      5-min Rain = 0
KSLS 070655Z 14004KT 21/19 A3006 RMK A01 T02120185  RH  086%=      5-min Rain = 0
KSLS 070700Z 15004KT 21/19 A3006 RMK A01 T02110185  RH  088%=      5-min Rain = 0
KSLS 070705Z 14003KT 21/19 A3006 RMK A01 T02120187  RH  088%=      5-min Rain = 0
KSLS 070710Z 14004KT 21/19 A3006 RMK A01 T02130187  RH  087%=      5-min Rain = 0
KSLS 070715Z 14003KT 21/19 A3006 RMK A01 T02140188  RH  087%=      5-min Rain = 0
KSLS 070720Z 12003KT 21/19 A3005 RMK A01 T02140188  RH  087%=      5-min Rain = 0
KSLS 070725Z 11002KT 21/19 A3005 RMK A01 T02140188  RH  087%=      5-min Rain = 0
KSLS 070730Z 11002KT 21/19 A3005 RMK A01 T02130189  RH  088%=      5-min Rain = 0
KSLS 070735Z 12003KT 21/19 A3005 RMK A01 T02130189  RH  089%=      5-min Rain = 0
KSLS 070740Z 11003KT 21/19 A3005 RMK A01 T02130189  RH  089%=      5-min Rain = 0
KSLS 070745Z 12003KT 21/19 A3005 RMK A01 T02130189  RH  088%=      5-min Rain = 0
KSLS 070750Z 12004KT 21/19 A3005 RMK A01 T02120187  RH  088%=      5-min Rain = 0
KSLS 070755Z 11003KT 21/19 A3005 RMK A01 T02110187  RH  088%=      5-min Rain = 0
KSLS 070800Z 11002KT 21/19 A3005 RMK A01 T02110188  RH  089%=      5-min Rain = 0
KSLS 070805Z 12003KT 21/19 A3005 RMK A01 T02110188  RH  089%=      5-min Rain = 0
KSLS 070810Z 13003KT 21/19 A3005 RMK A01 T02100186  RH  089%=      5-min Rain = 0
KSLS 070815Z 13003KT 21/19 A3005 RMK A01 T02090186  RH  089%=      5-min Rain = 0
KSLS 070820Z 12003KT 21/19 A3005 RMK A01 T02090187  RH  089%=      5-min Rain = 0
KSLS 070825Z 12004KT 21/19 A3005 RMK A01 T02090187  RH  089%=      5-min Rain = 0
KSLS 070830Z 12004KT 21/19 A3005 RMK A01 T02090186  RH  089%=      5-min Rain = 0
KSLS 070835Z 12003KT 21/19 A3005 RMK A01 T02080186  RH  090%=      5-min Rain = 0
KSLS 070840Z 12004KT 21/19 A3004 RMK A01 T02070186  RH  090%=      5-min Rain = 0
KSLS 070845Z 12003KT 21/19 A3005 RMK A01 T02080187  RH  090%=      5-min Rain = 0
KSLS 070850Z 09003KT 21/19 A3005 RMK A01 T02090189  RH  091%=      5-min Rain = 0
KSLS 070855Z 08003KT 21/19 A3005 RMK A01 T02090188  RH  090%=      5-min Rain = 0
KSLS 070900Z 07002KT 21/19 A3005 RMK A01 T02070188  RH  091%=      5-min Rain = 0
KSLS 070905Z 07001KT 21/19 A3005 RMK A01 T02060188  RH  092%=      5-min Rain = 0
KSLS 070910Z 07002KT 21/19 A3005 RMK A01 T02070189  RH  092%=      5-min Rain = 0
KSLS 070915Z 05002KT 21/19 A3005 RMK A01 T02080190  RH  091%=      5-min Rain = 0
KSLS 070920Z 03002KT 21/19 A3005 RMK A01 T02080188  RH  091%=      5-min Rain = 0
KSLS 070925Z 04002KT 21/19 A3005 RMK A01 T02070188  RH  091%=      5-min Rain = 0
KSLS 070930Z 04003KT 21/19 A3005 RMK A01 T02060188  RH  091%=      5-min Rain = 0
KSLS 070935Z 04002KT 21/19 A3005 RMK A01 T02050188  RH  092%=      5-min Rain = 0
KSLS 070940Z 04003KT 20/19 A3005 RMK A01 T02040187  RH  092%=      5-min Rain = 0
KSLS 070945Z 02002KT 20/19 A3005 RMK A01 T02030186  RH  092%=      5-min Rain = 0
KSLS 070950Z 02003KT 20/19 A3005 RMK A01 T02020186  RH  093%=      5-min Rain = 0
KSLS 070955Z 02003KT 20/19 A3005 RMK A01 T02010186  RH  093%=      5-min Rain = 0
KSLS 071000Z 02002KT 20/19 A3005 RMK A01 T02010186  RH  093%=      5-min Rain = 0
KSLS 071005Z 02002KT 20/19 A3005 RMK A01 T02010186  RH  094%=      5-min Rain = 0
KSLS 071010Z 02001KT 20/19 A3005 RMK A01 T02010187  RH  094%=      5-min Rain = 0
KSLS 071015Z 06001KT 20/19 A3005 RMK A01 T01990185  RH  094%=      5-min Rain = 0
KSLS 071020Z 07003KT 20/19 A3005 RMK A01 T02000187  RH  095%=      5-min Rain = 0
KSLS 071025Z 06002KT 20/19 A3005 RMK A01 T02000187  RH  095%=      5-min Rain = 0
KSLS 071030Z 03002KT 20/19 A3006 RMK A01 T02010189  RH  095%=      5-min Rain = 0
KSLS 071035Z 02002KT 20/19 A3006 RMK A01 T02020189  RH  095%=      5-min Rain = 0
KSLS 071040Z 03002KT 20/19 A3006 RMK A01 T02010188  RH  095%=      5-min Rain = 0
KSLS 071045Z 04002KT 20/19 A3006 RMK A01 T02020189  RH  095%=      5-min Rain = 0
KSLS 071050Z 04000KT 20/19 A3006 RMK A01 T02020188  RH  094%=      5-min Rain = 0
KSLS 071055Z 00000KT 20/19 A3006 RMK A01 T02000186  RH  094%=      5-min Rain = 0
KSLS 071100Z 04000KT 20/19 A3006 RMK A01 T01990186  RH  095%=      5-min Rain = 0
KSLS 071105Z 05001KT 20/19 A3006 RMK A01 T01990187  RH  095%=      5-min Rain = 0
KSLS 071110Z 10000KT 20/19 A3006 RMK A01 T01970185  RH  095%=      5-min Rain = 0
KSLS 071115Z 06001KT 20/19 A3006 RMK A01 T01980187  RH  095%=      5-min Rain = 0
KSLS 071120Z 09001KT 20/19 A3006 RMK A01 T01990187  RH  095%=      5-min Rain = 0
KSLS 071125Z 06003KT 20/19 A3006 RMK A01 T02010189  RH  095%=      5-min Rain = 0
KSLS 071130Z 08002KT 20/19 A3006 RMK A01 T02000188  RH  095%=      5-min Rain = 0
KSLS 071135Z 13003KT 20/19 A3006 RMK A01 T01990186  RH  095%=      5-min Rain = 0
KSLS 071140Z 14003KT 19/18 A3007 RMK A01 T01930179  RH  094%=      5-min Rain = 0
KSLS 071145Z 18003KT 19/18 A3006 RMK A01 T01890177  RH  095%=      5-min Rain = 0
KSLS 071150Z 15003KT 19/18 A3007 RMK A01 T01910181  RH  096%=      5-min Rain = 0
KSLS 071155Z 15002KT 19/18 A3006 RMK A01 T01940184  RH  096%=      5-min Rain = 0
KSLS 071200Z 15002KT 20/19 A3007 RMK A01 T01950185  RH  096%=      5-min Rain = 0
KSLS 071205Z 15001KT 20/19 A3007 RMK A01 T01970187  RH  096%=      5-min Rain = 0
KSLS 071210Z 13001KT 20/19 A3007 RMK A01 T01990188  RH  096%=      5-min Rain = 0
KSLS 071215Z 06000KT 20/19 A3007 RMK A01 T02010190  RH  096%=      5-min Rain = 0
KSLS 071220Z 01001KT 20/19 A3007 RMK A01 T02020189  RH  095%=      5-min Rain = 0
KSLS 071225Z 35001KT 20/19 A3007 RMK A01 T02040191  RH  095%=      5-min Rain = 0
KSLS 071230Z 35001KT 21/20 A3007 RMK A01 T02080195  RH  095%=      5-min Rain = 0
KSLS 071235Z 00000KT 21/20 A3007 RMK A01 T02130197  RH  093%=      5-min Rain = 0
KSLS 071240Z 34000KT 21/20 A3007 RMK A01 T02140196  RH  092%=      5-min Rain = 0
KSLS 071245Z 26001KT 21/20 A3007 RMK A01 T02140195  RH  091%=      5-min Rain = 0
KSLS 071250Z 26000KT 22/20 A3008 RMK A01 T02160195  RH  091%=      5-min Rain = 0
KSLS 071255Z 26000KT 22/20 A3008 RMK A01 T02190197  RH  090%=      5-min Rain = 0
KSLS 071300Z 27000KT 22/20 A3008 RMK A01 T02240199  RH  088%=      5-min Rain = 0
KSLS 071305Z 33000KT 23/20 A3008 RMK A01 T02250197  RH  086%=      5-min Rain = 0
KSLS 071310Z 00000KT 23/20 A3008 RMK A01 T02320199  RH  084%=      5-min Rain = 0
KSLS 071315Z 05001KT 24/20 A3008 RMK A01 T02360199  RH  082%=      5-min Rain = 0
KSLS 071320Z 06001KT 24/20 A3008 RMK A01 T02360199  RH  082%=      5-min Rain = 0
KSLS 071325Z 05002KT 23/20 A3008 RMK A01 T02340199  RH  083%=      5-min Rain = 0
KSLS 071330Z 07003KT 23/20 A3008 RMK A01 T02340199  RH  083%=      5-min Rain = 0
KSLS 071335Z 06003KT 23/20 A3008 RMK A01 T02340199  RH  083%=      5-min Rain = 0
KSLS 071340Z 10003KT 24/20 A3008 RMK A01 T02360199  RH  082%=      5-min Rain = 0
KSLS 071345Z 09003KT 24/20 A3008 RMK A01 T02400200  RH  081%=      5-min Rain = 0
KSLS 071350Z 08004KT 24/20 A3008 RMK A01 T02400199  RH  080%=      5-min Rain = 0
KSLS 071355Z 10004KT 24/20 A3008 RMK A01 T02400197  RH  079%=      5-min Rain = 0
KSLS 071400Z 10003KT 24/20 A3008 RMK A01 T02420197  RH  078%=      5-min Rain = 0
KSLS 071405Z 09003KT 25/20 A3008 RMK A01 T02450196  RH  076%=      5-min Rain = 0
KSLS 071410Z 09003KT 25/20 A3009 RMK A01 T02480196  RH  075%=      5-min Rain = 0
KSLS 071415Z 10005KT 25/20 A3009 RMK A01 T02520195  RH  073%=      5-min Rain = 0
KSLS 071420Z 10005KT 25/20 A3009 RMK A01 T02520195  RH  072%=      5-min Rain = 0
KSLS 071425Z 09005KT 25/20 A3009 RMK A01 T02530195  RH  072%=      5-min Rain = 0
KSLS 071430Z 09004KT 26/20 A3009 RMK A01 T02580195  RH  070%=      5-min Rain = 0
KSLS 071435Z 09003KT 26/19 A3009 RMK A01 T02610191  RH  067%=      5-min Rain = 0
KSLS 071440Z 08004KT 26/19 A3009 RMK A01 T02620192  RH  067%=      5-min Rain = 0
KSLS 071445Z 10004KT 26/18 A3009 RMK A01 T02640182  RH  062%=      5-min Rain = 0
KSLS 071450Z 11002KT 27/19 A3009 RMK A01 T02660186  RH  063%=      5-min Rain = 0
KSLS 071455Z 11004KT 27/19 A3009 RMK A01 T02680185  RH  062%=      5-min Rain = 0
KSLS 071500Z 13003KT 27/17 A3009 RMK A01 T02670174  RH  058%=      5-min Rain = 0
KSLS 071505Z 12003KT 27/17 A3009 RMK A01 T02710173  RH  056%=      5-min Rain = 0
KSLS 071510Z 12004KT 27/18 A3008 RMK A01 T02720177  RH  058%=      5-min Rain = 0
KSLS 071515Z 11003KT 27/18 A3008 RMK A01 T02720177  RH  057%=      5-min Rain = 0
KSLS 071520Z 12003KT 27/18 A3009 RMK A01 T02730178  RH  057%=      5-min Rain = 0
KSLS 071525Z 09005KT 28/18 A3009 RMK A01 T02760181  RH  058%=      5-min Rain = 0
KSLS 071530Z 06003KT 28/18 A3009 RMK A01 T02780180  RH  057%=      5-min Rain = 0
KSLS 071535Z 10004KT 28/18 A3009 RMK A01 T02780178  RH  056%=      5-min Rain = 0
KSLS 071540Z 11002KT 28/18 A3009 RMK A01 T02780181  RH  057%=      5-min Rain = 0
KSLS 071545Z 09004G9KT 28/19 A3009 RMK A01 T02780187  RH  059%=      5-min Rain = 0
KSLS 071550Z 06005KT 28/19 A3009 RMK A01 T02820186  RH  057%=      5-min Rain = 0
KSLS 071555Z 08005KT 28/19 A3009 RMK A01 T02840185  RH  056%=      5-min Rain = 0
KSLS 071600Z 09004KT 28/18 A3009 RMK A01 T02830181  RH  056%=      5-min Rain = 0
KSLS 071605Z 08005KT 29/18 A3009 RMK A01 T02860181  RH  054%=      5-min Rain = 0
KSLS 071610Z 11004KT 29/18 A3009 RMK A01 T02860182  RH  055%=      5-min Rain = 0
KSLS 071615Z 04004G9KT 29/18 A3009 RMK A01 T02890182  RH  054%=      5-min Rain = 0
KSLS 071620Z 07005KT 29/18 A3009 RMK A01 T02890181  RH  053%=      5-min Rain = 0
KSLS 071625Z 03003KT 29/18 A3009 RMK A01 T02900179  RH  053%=      5-min Rain = 0
KSLS 071630Z 07006KT 29/18 A3009 RMK A01 T02920178  RH  052%=      5-min Rain = 0
KSLS 071635Z 09005KT 29/18 A3009 RMK A01 T02880177  RH  052%=      5-min Rain = 0
KSLS 071640Z 11004KT 29/18 A3009 RMK A01 T02890175  RH  051%=      5-min Rain = 0
KSLS 071645Z 10003G8KT 29/18 A3009 RMK A01 T02910175  RH  051%=      5-min Rain = 0
KSLS 071650Z 06003G8KT 30/18 A3009 RMK A01 T02950176  RH  050%=      5-min Rain = 0
KSLS 071655Z 09004KT 29/18 A3008 RMK A01 T02940177  RH  051%=      5-min Rain = 0
KSLS 071700Z 10004KT 29/18 A3008 RMK A01 T02930178  RH  051%=      5-min Rain = 0
KSLS 071705Z 16005KT 29/18 A3008 RMK A01 T02910177  RH  051%=      5-min Rain = 0
KSLS 071710Z 10004KT 30/18 A3008 RMK A01 T02970179  RH  051%=      5-min Rain = 0
KSLS 071715Z 11006G11KT 30/18 A3008 RMK A01 T03020180  RH  049%=      5-min Rain = 0
KSLS 071720Z 10006KT 30/18 A3008 RMK A01 T03020179  RH  049%=      5-min Rain = 0
KSLS 071725Z 16003KT 30/18 A3008 RMK A01 T02980177  RH  049%=      5-min Rain = 0
KSLS 071730Z 07005KT 30/18 A3008 RMK A01 T02990179  RH  050%=      5-min Rain = 0
KSLS 071735Z 06007KT 31/18 A3008 RMK A01 T03060179  RH  048%=      5-min Rain = 0
KSLS 071740Z 06004KT 31/18 A3008 RMK A01 T03070178  RH  047%=      5-min Rain = 0
KSLS 071745Z 15005KT 31/17 A3008 RMK A01 T03060172  RH  046%=      5-min Rain = 0
KSLS 071750Z 16001KT 30/17 A3007 RMK A01 T03010170  RH  047%=      5-min Rain = 0
KSLS 071755Z 14003KT 30/17 A3007 RMK A01 T03000172  RH  047%=      5-min Rain = 0
KSLS 071800Z 17005G10KT 31/17 A3007 RMK A01 T03070170  RH  045%=      5-min Rain = 0
KSLS 071805Z 19005KT 31/17 A3007 RMK A01 T03080168  RH  044%=      5-min Rain = 0
KSLS 071810Z 09004KT 31/17 A3007 RMK A01 T03110171  RH  044%=      5-min Rain = 0
KSLS 071815Z 11007KT 31/17 A3007 RMK A01 T03100170  RH  044%=      5-min Rain = 0
KSLS 071820Z 12004KT 31/17 A3007 RMK A01 T03100168  RH  044%=      5-min Rain = 0
KSLS 071825Z 09003KT 31/17 A3007 RMK A01 T03110168  RH  043%=      5-min Rain = 0
KSLS 071830Z 18002KT 31/17 A3007 RMK A01 T03110165  RH  042%=      5-min Rain = 0
KSLS 071835Z 24003KT 31/17 A3007 RMK A01 T03110167  RH  043%=      5-min Rain = 0
KSLS 071840Z 09006KT 32/17 A3006 RMK A01 T03150166  RH  042%=      5-min Rain = 0
KSLS 071845Z 13003G8KT 32/17 A3006 RMK A01 T03160166  RH  042%=      5-min Rain = 0
KSLS 071850Z 21001KT 32/17 A3006 RMK A01 T03150165  RH  041%=      5-min Rain = 0
KSLS 071855Z 09004G10KT 32/17 A3006 RMK A01 T03220168  RH  041%=      5-min Rain = 0
KSLS 071900Z 07006G13KT 32/17 A3005 RMK A01 T03190168  RH  041%=      5-min Rain = 0
KSLS 071905Z 05005G10KT 32/17 A3005 RMK A01 T03150167  RH  042%=      5-min Rain = 0
KSLS 071910Z 13007G12KT 32/17 A3005 RMK A01 T03200168  RH  041%=      5-min Rain = 0
KSLS 071915Z 10005G13KT 32/17 A3005 RMK A01 T03170167  RH  042%=      5-min Rain = 0
KSLS 071920Z 07005G11KT 32/17 A3005 RMK A01 T03180166  RH  041%=      5-min Rain = 0
KSLS 071925Z 08006G11KT 31/16 A3005 RMK A01 T03130164  RH  042%=      5-min Rain = 0
KSLS 071930Z 08006KT 32/17 A3004 RMK A01 T03210166  RH  040%=      5-min Rain = 0
KSLS 071935Z 09007KT 32/16 A3004 RMK A01 T03200162  RH  040%=      5-min Rain = 0
KSLS 071940Z 10005G10KT 32/16 A3004 RMK A01 T03180161  RH  040%=      5-min Rain = 0
KSLS 071945Z 09005KT 32/16 A3004 RMK A01 T03210163  RH  040%=      5-min Rain = 0
KSLS 071950Z 08006G11KT 33/16 A3003 RMK A01 T03260163  RH  038%=      5-min Rain = 0
KSLS 071955Z 11008KT 32/16 A3003 RMK A01 T03190157  RH  038%=      5-min Rain = 0
KSLS 072000Z 15003KT 32/16 A3003 RMK A01 T03150155  RH  039%=      5-min Rain = 0
KSLS 072005Z 06006G12KT 32/16 A3003 RMK A01 T03240161  RH  038%=      5-min Rain = 0
KSLS 072010Z 07007G13KT 33/16 A3003 RMK A01 T03270161  RH  038%=      5-min Rain = 0
KSLS 072015Z 10008KT 33/16 A3002 RMK A01 T03280157  RH  037%=      5-min Rain = 0
KSLS 072020Z 06005KT 32/16 A3002 RMK A01 T03220156  RH  038%=      5-min Rain = 0
KSLS 072025Z 07007G13KT 32/16 A3002 RMK A01 T03220161  RH  039%=      5-min Rain = 0
KSLS 072030Z 10010KT 32/16 A3002 RMK A01 T03210160  RH  039%=      5-min Rain = 0
KSLS 072035Z 07008KT 33/16 A3002 RMK A01 T03250162  RH  039%=      5-min Rain = 0
KSLS 072040Z 10005KT 32/16 A3002 RMK A01 T03230159  RH  038%=      5-min Rain = 0
KSLS 072045Z 09006G12KT 33/16 A3001 RMK A01 T03250162  RH  039%=      5-min Rain = 0
KSLS 072050Z 08009G14KT 33/16 A3001 RMK A01 T03280162  RH  038%=      5-min Rain = 0
KSLS 072055Z 10006KT 33/16 A3001 RMK A01 T03260158  RH  037%=      5-min Rain = 0
KSLS 072100Z 08004KT 33/16 A3001 RMK A01 T03280155  RH  036%=      5-min Rain = 0
KSLS 072105Z 04006G11KT 33/16 A30 RMK A01 T03280155  RH  036%=      5-min Rain = 0
KSLS 072110Z 06006G11KT 33/16 A30 RMK A01 T03290155  RH  036%=      5-min Rain = 0
KSLS 072115Z 07007G13KT 33/16 A30 RMK A01 T03300160  RH  037%=      5-min Rain = 0
KSLS 072120Z 09005G15KT 33/17 A30 RMK A01 T03290165  RH  038%=      5-min Rain = 0
KSLS 072125Z 03003G9KT 33/16 A2999 RMK A01 T03310162  RH  037%=      5-min Rain = 0
KSLS 072130Z 04002KT 33/16 A2999 RMK A01 T03290160  RH  037%=      5-min Rain = 0
KSLS 072135Z 09008G13KT 33/16 A2999 RMK A01 T03300163  RH  038%=      5-min Rain = 0
KSLS 072140Z 10009KT 33/16 A2999 RMK A01 T03260161  RH  038%=      5-min Rain = 0
KSLS 072145Z 07006G12KT 32/16 A2999 RMK A01 T03180158  RH  039%=      5-min Rain = 0
KSLS 072150Z 09006KT 33/16 A2998 RMK A01 T03260160  RH  038%=      5-min Rain = 0
KSLS 072155Z 06006G11KT 33/16 A2998 RMK A01 T03270161  RH  038%=      5-min Rain = 0
KSLS 072200Z 09007KT 33/16 A2998 RMK A01 T03290162  RH  038%=      5-min Rain = 0
KSLS 072205Z 12008KT 33/16 A2998 RMK A01 T03310159  RH  036%=      5-min Rain = 0
KSLS 072210Z 12005KT 33/16 A2998 RMK A01 T03290155  RH  036%=      5-min Rain = 0
KSLS 072215Z 15005KT 33/16 A2998 RMK A01 T03320156  RH  036%=      5-min Rain = 0
KSLS 072220Z 11008G14KT 34/16 A2997 RMK A01 T03350156  RH  035%=      5-min Rain = 0
KSLS 072225Z 11007G13KT 33/16 A2997 RMK A01 T03320156  RH  036%=      5-min Rain = 0
KSLS 072230Z 10006G11KT 33/15 A2997 RMK A01 T03320153  RH  035%=      5-min Rain = 0
KSLS 072235Z 14008KT 33/15 A2997 RMK A01 T03320152  RH  035%=      5-min Rain = 0
KSLS 072240Z 14006G11KT 33/15 A2997 RMK A01 T03310152  RH  035%=      5-min Rain = 0
KSLS 072245Z 13011G17KT 34/15 A2997 RMK A01 T03350152  RH  034%=      5-min Rain = 0
KSLS 072250Z 15009KT 33/15 A2997 RMK A01 T03330147  RH  033%=      5-min Rain = 0
KSLS 072255Z 13007G13KT 33/15 A2997 RMK A01 T03330149  RH  034%=      5-min Rain = 0
KSLS 072300Z 13009G14KT 33/15 A2997 RMK A01 T03340150  RH  034%=      5-min Rain = 0
KSLS 072305Z 11009KT 33/16 A2997 RMK A01 T03320155  RH  035%=      5-min Rain = 0
KSLS 072310Z 12010KT 33/15 A2997 RMK A01 T03310151  RH  035%=      5-min Rain = 0
KSLS 072315Z 11007G12KT 33/15 A2996 RMK A01 T03270150  RH  035%=      5-min Rain = 0
KSLS 072320Z 10008G13KT 33/15 A2996 RMK A01 T03270149  RH  035%=      5-min Rain = 0
KSLS 072325Z 11009G14KT 33/15 A2996 RMK A01 T03280149  RH  035%=      5-min Rain = 0
KSLS 072330Z 11008KT 33/15 A2996 RMK A01 T03270148  RH  035%=      5-min Rain = 0
KSLS 072335Z 13009KT 33/15 A2996 RMK A01 T03310150  RH  035%=      5-min Rain = 0
KSLS 072340Z 13009KT 33/15 A2996 RMK A01 T03300147  RH  034%=      5-min Rain = 0
KSLS 072345Z 10010G15KT 33/15 A2996 RMK A01 T03280152  RH  035%=      5-min Rain = 0
KSLS 072350Z 09008G14KT 33/15 A2996 RMK A01 T03260149  RH  035%=      5-min Rain = 0
KSLS 072355Z 12009KT 33/15 A2996 RMK A01 T03260147  RH  035%=      5-min Rain = 0
KSLS 080000Z 11009KT 33/15 A2996 RMK A01 T03260148  RH  035%=      5-min Rain = 0
KSLS 080005Z 12009G14KT 33/15 A2996 RMK A01 T03260148  RH  035%=      5-min Rain = 0
KSLS 080010Z 12010KT 32/15 A2996 RMK A01 T03240150  RH  036%=      5-min Rain = 0
KSLS 080015Z 10008KT 32/15 A2996 RMK A01 T03230152  RH  037%=      5-min Rain = 0
KSLS 080020Z 10010KT 32/15 A2996 RMK A01 T03230153  RH  037%=      5-min Rain = 0
KSLS 080025Z 11008KT 32/15 A2996 RMK A01 T03220153  RH  037%=      5-min Rain = 0
KSLS 080030Z 11009KT 32/15 A2996 RMK A01 T03220153  RH  037%=      5-min Rain = 0
KSLS 080035Z 10007G13KT 32/16 A2996 RMK A01 T03190155  RH  038%=      5-min Rain = 0
KSLS 080040Z 10008KT 32/16 A2996 RMK A01 T03190157  RH  039%=      5-min Rain = 0
KSLS 080045Z 11007KT 32/16 A2996 RMK A01 T03190157  RH  039%=      5-min Rain = 0
KSLS 080050Z 11009KT 32/16 A2996 RMK A01 T03180157  RH  039%=      5-min Rain = 0
KSLS 080055Z 10010KT 32/16 A2996 RMK A01 T03160158  RH  039%=      5-min Rain = 0
KSLS 080100Z 10009KT 32/16 A2996 RMK A01 T03150158  RH  040%=      5-min Rain = 0
KSLS 080105Z 10010KT 31/16 A2996 RMK A01 T03140158  RH  040%=      5-min Rain = 0
KSLS 080110Z 09010KT 31/16 A2996 RMK A01 T03120159  RH  041%=      5-min Rain = 0
KSLS 080115Z 10009KT 31/16 A2996 RMK A01 T03110159  RH  041%=      5-min Rain = 0
KSLS 080120Z 10010KT 31/16 A2996 RMK A01 T03100158  RH  041%=      5-min Rain = 0
KSLS 080125Z 10009KT 31/16 A2997 RMK A01 T03090159  RH  042%=      5-min Rain = 0
KSLS 080130Z 10009KT 31/16 A2997 RMK A01 T03070161  RH  042%=      5-min Rain = 0
KSLS 080135Z 09008KT 31/16 A2997 RMK A01 T03050162  RH  043%=      5-min Rain = 0
KSLS 080140Z 10007KT 30/17 A2997 RMK A01 T03030165  RH  045%=      5-min Rain = 0
KSLS 080145Z 09007KT 30/17 A2997 RMK A01 T03000165  RH  045%=      5-min Rain = 0
KSLS 080150Z 09007KT 30/17 A2997 RMK A01 T02980166  RH  046%=      5-min Rain = 0
KSLS 080155Z 09008KT 30/16 A2997 RMK A01 T02970163  RH  045%=      5-min Rain = 0
KSLS 080200Z 09007KT 30/16 A2997 RMK A01 T02950164  RH  046%=      5-min Rain = 0
KSLS 080205Z 09007KT 29/16 A2998 RMK A01 T02920164  RH  047%=      5-min Rain = 0
KSLS 080210Z 09007KT 29/17 A2998 RMK A01 T02900167  RH  049%=      5-min Rain = 0
KSLS 080215Z 09007KT 29/17 A2998 RMK A01 T02870171  RH  051%=      5-min Rain = 0
KSLS 080220Z 09007KT 29/17 A2998 RMK A01 T02860171  RH  051%=      5-min Rain = 0
KSLS 080225Z 09006KT 28/17 A2998 RMK A01 T02840172  RH  052%=      5-min Rain = 0
KSLS 080230Z 09006KT 28/17 A2999 RMK A01 T02810172  RH  053%=      5-min Rain = 0
KSLS 080235Z 10007KT 28/17 A2999 RMK A01 T02800172  RH  053%=      5-min Rain = 0
KSLS 080240Z 10008KT 28/17 A2999 RMK A01 T02810171  RH  052%=      5-min Rain = 0
KSLS 080245Z 10008KT 28/17 A2999 RMK A01 T02820171  RH  052%=      5-min Rain = 0
KSLS 080250Z 10008KT 28/17 A2999 RMK A01 T02810171  RH  052%=      5-min Rain = 0
KSLS 080255Z 10007KT 28/17 A30 RMK A01 T02800172  RH  053%=      5-min Rain = 0
KSLS 080300Z 10008KT 28/17 A30 RMK A01 T02800172  RH  053%=      5-min Rain = 0
KSLS 080305Z 10008KT 28/17 A30 RMK A01 T02780172  RH  054%=      5-min Rain = 0
KSLS 080310Z 10008KT 28/17 A30 RMK A01 T02770172  RH  054%=      5-min Rain = 0
KSLS 080315Z 10008KT 28/17 A30 RMK A01 T02770173  RH  054%=      5-min Rain = 0
KSLS 080320Z 10008KT 28/17 A30 RMK A01 T02750173  RH  055%=      5-min Rain = 0
KSLS 080325Z 10007KT 27/17 A30 RMK A01 T02740174  RH  056%=      5-min Rain = 0
KSLS 080330Z 10008KT 27/17 A30 RMK A01 T02720174  RH  056%=      5-min Rain = 0
KSLS 080335Z 10008KT 27/18 A30 RMK A01 T02710175  RH  057%=      5-min Rain = 0
KSLS 080340Z 11008KT 27/18 A30 RMK A01 T02700175  RH  058%=      5-min Rain = 0
KSLS 080345Z 11008KT 27/18 A3001 RMK A01 T02690175  RH  058%=      5-min Rain = 0
KSLS 080350Z 12008KT 27/18 A3001 RMK A01 T02680175  RH  058%=      5-min Rain = 0
KSLS 080355Z 12009KT 27/18 A3001 RMK A01 T02670175  RH  058%=      5-min Rain = 0
KSLS 080400Z 13009KT 27/18 A3001 RMK A01 T02660175  RH  059%=      5-min Rain = 0
KSLS 080405Z 13008KT 26/17 A3001 RMK A01 T02620174  RH  060%=      5-min Rain = 0
KSLS 080410Z 12008KT 26/18 A3001 RMK A01 T02610175  RH  061%=      5-min Rain = 0
KSLS 080415Z 13008KT 26/18 A3001 RMK A01 T02610176  RH  061%=      5-min Rain = 0
KSLS 080420Z 12008KT 26/18 A3001 RMK A01 T02610176  RH  061%=      5-min Rain = 0
KSLS 080425Z 13008KT 26/18 A3001 RMK A01 T02610176  RH  061%=      5-min Rain = 0
KSLS 080430Z 12008KT 26/18 A3001 RMK A01 T02610175  RH  061%=      5-min Rain = 0
KSLS 080435Z 12009KT 26/18 A3002 RMK A01 T02620175  RH  060%=      5-min Rain = 0
KSLS 080440Z 12008KT 26/18 A3002 RMK A01 T02620175  RH  060%=      5-min Rain = 0
KSLS 080445Z 12009KT 26/17 A3002 RMK A01 T02620174  RH  060%=      5-min Rain = 0
KSLS 080450Z 12008KT 26/18 A3002 RMK A01 T02610175  RH  060%=      5-min Rain = 0
KSLS 080455Z 13008KT 26/17 A3002 RMK A01 T02600174  RH  061%=      5-min Rain = 0

Page generated in 0.0152 seconds.